Time;durP1;ratioP1;P1;durP2;ratioP2;P2;SDS_P1;SDS_P2;PMS_P1;PMS_P2;Temp;Humidity;BMP_temperature;BMP_pressure;BME280_temperature;BME280_humidity;BME280_pressure;Samples;Min_cycle;Max_cycle;Signal;HPM_P1;HPM_P2
2022/03/25 00:00:28;;;;;;;16.95;10.32;;;7.90;60.00;;;;;;4867592;29;20140;-83
2022/03/25 05:21:27;;;;;;;16.90;9.97;;;3.70;95.30;;;;;;4980821;23;20056;-85
2022/03/25 05:23:54;;;;;;;17.23;10.65;;;3.70;95.20;;;;;;4937501;29;20051;-84
2022/03/25 05:26:21;;;;;;;16.88;10.30;;;3.80;95.30;;;;;;4937797;29;20581;-84
2022/03/25 05:28:48;;;;;;;18.25;11.38;;;3.80;95.10;;;;;;4937484;29;20055;-83
2022/03/25 05:31:15;;;;;;;21.10;11.73;;;3.80;94.90;;;;;;4931698;29;20062;-86
2022/03/25 05:33:43;;;;;;;20.45;11.82;;;3.70;95.20;;;;;;4943019;29;20143;-88
2022/03/25 05:36:10;;;;;;;18.02;10.60;;;3.70;95.10;;;;;;4940159;29;20134;-87
2022/03/25 05:38:38;;;;;;;18.70;11.73;;;3.90;94.90;;;;;;4941366;29;20075;-80
2022/03/25 05:41:05;;;;;;;16.50;10.52;;;3.70;94.80;;;;;;4942146;29;20135;-85
2022/03/25 05:43:34;;;;;;;19.45;11.52;;;3.50;95.60;;;;;;4924610;29;20588;-82
2022/03/25 05:46:02;;;;;;;21.13;12.43;;;3.70;95.20;;;;;;4928423;29;20060;-85
2022/03/25 05:48:29;;;;;;;19.88;11.60;;;3.40;95.90;;;;;;4939972;29;20409;-85
2022/03/25 05:50:56;;;;;;;17.48;10.52;;;3.50;96.00;;;;;;4935527;29;20070;-86
2022/03/25 05:53:24;;;;;;;17.63;10.38;;;3.50;96.00;;;;;;4945205;29;20151;-84
2022/03/25 05:55:52;;;;;;;17.60;10.68;;;3.50;96.10;;;;;;4946173;29;20075;-81
2022/03/25 05:58:19;;;;;;;20.23;11.60;;;3.40;96.30;;;;;;4940812;29;20135;-84
2022/03/25 06:00:46;;;;;;;18.95;11.75;;;3.10;97.10;;;;;;4941071;29;20078;-85
2022/03/25 06:03:14;;;;;;;18.50;10.80;;;3.20;97.50;;;;;;4934720;29;20048;-84
2022/03/25 06:05:41;;;;;;;18.13;10.70;;;3.50;96.60;;;;;;4921901;29;20051;-85
2022/03/25 06:08:09;;;;;;;20.85;11.40;;;3.60;96.20;;;;;;4920733;29;20127;-83
2022/03/25 06:10:36;;;;;;;17.20;10.43;;;3.70;96.00;;;;;;4937650;29;20055;-82
2022/03/25 06:13:05;;;;;;;20.02;11.93;;;3.40;96.70;;;;;;4937126;29;20139;-84
2022/03/25 06:15:32;;;;;;;20.88;12.30;;;3.50;96.70;;;;;;4939015;29;20074;-82
2022/03/25 06:17:59;;;;;;;21.83;12.65;;;3.80;96.30;;;;;;4938488;29;20477;-83
2022/03/25 06:20:28;;;;;;;21.33;12.40;;;3.80;96.20;;;;;;4926144;29;20123;-81
2022/03/25 06:22:55;;;;;;;21.50;12.57;;;3.70;96.10;;;;;;4935204;29;20147;-83
2022/03/25 06:25:22;;;;;;;21.67;12.50;;;3.90;96.10;;;;;;4922805;29;20131;-82
2022/03/25 06:27:51;;;;;;;21.70;12.95;;;3.70;96.10;;;;;;4936204;29;20486;-81
2022/03/25 06:30:22;;;;;;;20.45;12.45;;;3.80;95.70;;;;;;4934093;29;20135;-80
2022/03/25 06:32:49;;;;;;;18.63;11.68;;;4.10;94.80;;;;;;4935975;29;20466;-79
2022/03/25 06:35:20;;;;;;;22.30;13.43;;;4.50;93.90;;;;;;4929840;28;20095;-83
2022/03/25 06:37:47;;;;;;;19.00;11.77;;;4.50;93.60;;;;;;4927155;29;20051;-83
2022/03/25 06:40:16;;;;;;;20.73;12.98;;;4.60;92.50;;;;;;4935236;29;20139;-83
2022/03/25 06:42:44;;;;;;;21.45;12.43;;;4.60;92.70;;;;;;4917278;29;20080;-84
2022/03/25 06:45:14;;;;;;;22.98;13.73;;;4.70;92.70;;;;;;4917325;29;20151;-83
2022/03/25 06:47:44;;;;;;;24.08;13.45;;;4.70;92.20;;;;;;4935023;29;20100;-82
2022/03/25 06:50:15;;;;;;;24.88;13.25;;;4.90;91.90;;;;;;4931627;29;20062;-83
2022/03/25 06:52:43;;;;;;;21.70;12.13;;;4.90;91.90;;;;;;4926235;29;20060;-83
2022/03/25 06:55:12;;;;;;;23.75;13.68;;;5.00;91.20;;;;;;4926089;29;20143;-84
2022/03/25 06:57:40;;;;;;;23.50;13.93;;;5.00;91.30;;;;;;4939362;29;20083;-84
2022/03/25 07:00:11;;;;;;;21.70;13.02;;;5.00;91.10;;;;;;4936055;29;20138;-85
2022/03/25 07:02:40;;;;;;;24.90;13.68;;;5.10;91.20;;;;;;4939083;29;20134;-83
2022/03/25 07:05:12;;;;;;;24.33;14.02;;;5.00;91.10;;;;;;4925453;29;20595;-83
2022/03/25 07:07:42;;;;;;;23.50;13.35;;;5.10;90.80;;;;;;4937917;29;20083;-84
2022/03/25 07:10:12;;;;;;;19.17;12.23;;;5.20;90.80;;;;;;4920779;29;20052;-80
2022/03/25 07:12:41;;;;;;;21.23;12.20;;;5.50;90.50;;;;;;4920466;29;20474;-81
2022/03/25 07:15:10;;;;;;;20.67;12.60;;;5.60;89.60;;;;;;4935452;29;20142;-81
2022/03/25 07:17:38;;;;;;;20.40;12.25;;;5.70;88.30;;;;;;4936852;29;20051;-80
2022/03/25 07:20:09;;;;;;;21.58;12.48;;;5.80;88.10;;;;;;4936053;29;20058;-82
2022/03/25 07:22:36;;;;;;;23.52;13.30;;;5.70;87.70;;;;;;4922681;29;20483;-81
2022/03/25 07:25:04;;;;;;;24.25;14.07;;;5.70;87.70;;;;;;4933601;29;20099;-80
2022/03/25 07:27:32;;;;;;;25.35;13.85;;;5.70;87.50;;;;;;4933095;29;20147;-80
2022/03/25 07:29:59;;;;;;;22.48;13.00;;;5.90;87.90;;;;;;4936468;29;20130;-80
2022/03/25 07:32:26;;;;;;;22.13;13.05;;;6.00;88.00;;;;;;4936753;29;20139;-80
2022/03/25 07:34:53;;;;;;;23.48;13.15;;;6.10;86.90;;;;;;4935447;29;20131;-80
2022/03/25 07:37:22;;;;;;;23.98;14.20;;;6.10;89.10;;;;;;4933444;29;20127;-81
2022/03/25 07:39:50;;;;;;;23.58;13.85;;;6.10;90.00;;;;;;4936815;29;20083;-83
2022/03/25 07:42:17;;;;;;;20.45;13.05;;;6.20;89.70;;;;;;4932853;29;20087;-81
2022/03/25 07:44:44;;;;;;;23.75;13.90;;;6.10;90.50;;;;;;4933594;29;22043;-82
2022/03/25 07:47:12;;;;;;;24.25;13.98;;;6.10;90.40;;;;;;4934626;29;20087;-83
2022/03/25 07:49:40;;;;;;;21.70;13.18;;;6.30;90.40;;;;;;4934806;29;20477;-81
2022/03/25 07:52:08;;;;;;;20.83;12.88;;;6.40;90.20;;;;;;4935434;29;20063;-81
2022/03/25 07:54:38;;;;;;;22.15;13.77;;;6.40;90.10;;;;;;4936459;29;20485;-80
2022/03/25 07:57:06;;;;;;;25.13;14.43;;;6.60;90.20;;;;;;4934773;29;20126;-82
2022/03/25 07:59:33;;;;;;;27.30;15.30;;;6.70;88.30;;;;;;4935567;29;20119;-79
2022/03/25 08:02:01;;;;;;;23.15;13.52;;;6.80;88.70;;;;;;4935925;29;20134;-82
2022/03/25 08:04:28;;;;;;;22.95;14.48;;;7.00;88.00;;;;;;4934937;29;20054;-80
2022/03/25 08:06:56;;;;;;;25.60;14.77;;;7.10;87.50;;;;;;4935529;29;20580;-80
2022/03/25 08:09:27;;;;;;;21.70;13.65;;;7.20;86.90;;;;;;4935312;29;20068;-82
2022/03/25 08:11:56;;;;;;;26.40;15.40;;;7.40;84.20;;;;;;4931124;29;20096;-82
2022/03/25 08:14:23;;;;;;;26.98;15.48;;;7.60;82.20;;;;;;4930350;29;20055;-81
2022/03/25 08:16:50;;;;;;;27.95;15.77;;;7.80;80.80;;;;;;4936734;29;20074;-82
2022/03/25 08:19:18;;;;;;;26.58;14.80;;;7.90;78.10;;;;;;4929913;29;20139;-80
2022/03/25 08:21:45;;;;;;;29.55;15.98;;;8.10;76.60;;;;;;4957830;28;20130;-81
2022/03/25 08:29:43;;;;;;;23.35;13.95;;;8.40;74.60;;;;;;4926114;29;20054;-79
2022/03/25 08:32:11;;;;;;;29.17;15.77;;;8.50;74.90;;;;;;4948393;28;20043;-81
2022/03/25 08:34:38;;;;;;;24.73;14.55;;;8.60;74.20;;;;;;4955050;28;20047;-82
2022/03/25 08:37:05;;;;;;;23.63;13.20;;;8.70;73.50;;;;;;4937496;29;20078;-84
2022/03/25 08:39:32;;;;;;;23.05;13.27;;;8.80;73.40;;;;;;4958874;28;20135;-81
2022/03/25 08:42:02;;;;;;;26.70;16.27;;;8.80;73.20;;;;;;4955632;28;20114;-80
2022/03/25 08:44:29;;;;;;;28.42;16.73;;;8.80;76.50;;;;;;4955259;29;20453;-79
2022/03/25 08:46:56;;;;;;;23.67;14.95;;;8.70;78.90;;;;;;4954512;29;20039;-80
2022/03/25 08:49:24;;;;;;;21.67;14.52;;;8.80;78.80;;;;;;4951850;28;20134;-80
2022/03/25 08:51:51;;;;;;;23.20;15.00;;;8.90;79.60;;;;;;4955355;29;20553;-82
2022/03/25 08:54:18;;;;;;;23.27;14.52;;;9.00;79.80;;;;;;4955496;28;20469;-81
2022/03/25 08:56:47;;;;;;;22.48;13.85;;;9.10;80.20;;;;;;4955045;29;20043;-79
2022/03/25 08:59:15;;;;;;;21.67;13.45;;;9.10;80.50;;;;;;4953918;29;20047;-80
2022/03/25 09:01:44;;;;;;;24.40;14.25;;;9.20;81.50;;;;;;4954983;28;20122;-80
2022/03/25 09:04:11;;;;;;;24.02;15.35;;;9.20;80.90;;;;;;4955338;28;20420;-81
2022/03/25 09:06:38;;;;;;;23.38;14.95;;;9.30;80.10;;;;;;4955718;29;20134;-78
2022/03/25 09:09:05;;;;;;;23.70;14.40;;;9.40;79.90;;;;;;4953897;28;20564;-80
2022/03/25 09:11:32;;;;;;;21.80;14.25;;;9.50;79.40;;;;;;4952987;28;20576;-82
2022/03/25 09:13:59;;;;;;;22.83;14.35;;;9.50;80.10;;;;;;4952339;28;20114;-79
2022/03/25 09:16:28;;;;;;;24.95;14.75;;;9.60;79.60;;;;;;4954040;28;20110;-86
2022/03/25 09:18:56;;;;;;;22.08;13.68;;;9.70;79.30;;;;;;4955158;28;20130;-79
2022/03/25 09:21:23;;;;;;;20.67;13.68;;;9.80;79.00;;;;;;4929034;28;20085;-81
2022/03/25 09:23:50;;;;;;;22.98;14.02;;;9.80;78.70;;;;;;4948685;28;20130;-80
2022/03/25 09:26:18;;;;;;;20.40;13.73;;;10.00;75.30;;;;;;4952290;28;20138;-80
2022/03/25 09:28:45;;;;;;;21.48;12.77;;;10.20;73.80;;;;;;4955448;28;20102;-79
2022/03/25 09:31:12;;;;;;;30.55;17.10;;;10.30;73.60;;;;;;4953948;28;20133;-83
2022/03/25 09:33:40;;;;;;;28.58;17.50;;;10.50;72.10;;;;;;4954539;28;20518;-83
2022/03/25 09:36:08;;;;;;;25.83;15.57;;;10.60;71.10;;;;;;4923128;28;20544;-84
2022/03/25 09:38:35;;;;;;;24.67;14.98;;;10.70;70.30;;;;;;4939068;29;20080;-82
2022/03/25 09:41:06;;;;;;;24.20;14.57;;;10.80;70.20;;;;;;4950636;29;20560;-87
2022/03/25 09:43:34;;;;;;;27.23;16.15;;;10.80;69.20;;;;;;4943736;28;20484;-82
2022/03/25 09:46:02;;;;;;;28.75;17.17;;;10.90;67.00;;;;;;4942028;28;20047;-82
2022/03/25 09:48:29;;;;;;;22.95;13.73;;;11.10;68.40;;;;;;4950641;28;20122;-78
2022/03/25 09:50:58;;;;;;;21.52;13.23;;;11.20;68.10;;;;;;4934883;29;20126;-79
2022/03/25 09:53:30;;;;;;;25.25;14.75;;;11.30;68.20;;;;;;4950852;28;20143;-81
2022/03/25 09:55:59;;;;;;;27.67;15.82;;;11.40;67.90;;;;;;4951033;28;20050;-80
2022/03/25 09:58:28;;;;;;;28.67;16.00;;;11.50;67.00;;;;;;4949621;28;20521;-85
2022/03/25 10:00:55;;;;;;;27.95;16.67;;;11.40;67.20;;;;;;4953745;28;20882;-83
2022/03/25 10:03:27;;;;;;;32.22;18.88;;;11.40;65.70;;;;;;4915753;28;20059;-82
2022/03/25 10:05:58;;;;;;;28.10;17.00;;;11.40;66.20;;;;;;4946947;28;20456;-80
2022/03/25 10:08:32;;;;;;;29.30;17.30;;;11.50;65.30;;;;;;4951415;28;20138;-85
2022/03/25 10:11:18;;;;;;;27.57;16.27;;;11.50;64.40;;;;;;4958764;28;20043;-87
2022/03/25 10:13:50;;;;;;;25.10;15.75;;;11.60;61.90;;;;;;4937710;29;20083;-86
2022/03/25 10:16:28;;;;;;;29.60;18.48;;;11.70;61.50;;;;;;4954168;28;20081;-85
2022/03/25 10:18:56;;;;;;;28.15;16.73;;;11.70;59.40;;;;;;4959743;29;20059;-83
2022/03/25 10:21:24;;;;;;;29.52;17.58;;;11.90;59.00;;;;;;4958767;28;20390;-82
2022/03/25 10:23:52;;;;;;;35.90;21.48;;;11.90;59.30;;;;;;4959493;28;20055;-84
2022/03/25 10:26:19;;;;;;;31.13;19.95;;;11.90;57.70;;;;;;4959694;29;20086;-82
2022/03/25 10:28:51;;;;;;;29.30;18.48;;;12.10;56.10;;;;;;4942090;29;20126;-85
2022/03/25 10:31:30;;;;;;;29.92;18.20;;;12.20;56.50;;;;;;4958145;29;20143;-83
2022/03/25 10:33:58;;;;;;;33.42;19.67;;;12.30;57.00;;;;;;4955963;29;20059;-82
2022/03/25 10:36:28;;;;;;;31.75;19.55;;;12.30;57.40;;;;;;4955441;29;20125;-83
2022/03/25 10:39:01;;;;;;;31.77;19.58;;;12.40;58.40;;;;;;4955836;28;20051;-84
2022/03/25 10:41:42;;;;;;;33.08;20.23;;;12.50;58.10;;;;;;4955548;29;20043;-83
2022/03/25 10:44:10;;;;;;;32.55;20.70;;;12.70;57.30;;;;;;4938442;29;20055;-83
2022/03/25 10:46:40;;;;;;;32.42;19.02;;;12.60;56.40;;;;;;4955821;29;20043;-83
2022/03/25 10:49:11;;;;;;;31.45;19.48;;;12.80;57.00;;;;;;4955572;29;20154;-83
2022/03/25 10:51:41;;;;;;;31.02;19.05;;;12.90;56.60;;;;;;4955588;29;20055;-85
2022/03/25 10:54:09;;;;;;;34.80;20.73;;;13.00;58.00;;;;;;4955742;29;20137;-83
2022/03/25 10:56:46;;;;;;;31.05;18.42;;;13.00;56.70;;;;;;4955496;29;20479;-84
2022/03/25 10:59:24;;;;;;;32.75;20.38;;;13.10;58.00;;;;;;4955277;29;20055;-84
2022/03/25 11:01:54;;;;;;;31.33;19.25;;;13.30;56.40;;;;;;4938941;29;20154;-84
2022/03/25 11:04:21;;;;;;;31.33;18.48;;;13.40;56.50;;;;;;4955286;29;20082;-84
2022/03/25 11:06:52;;;;;;;30.95;19.33;;;13.50;55.60;;;;;;4955574;29;20047;-85
2022/03/25 11:09:20;;;;;;;27.63;17.55;;;13.50;55.50;;;;;;4955425;28;20058;-84
2022/03/25 11:11:51;;;;;;;27.75;16.88;;;13.60;53.80;;;;;;4955170;29;20085;-83
2022/03/25 11:14:19;;;;;;;32.15;21.02;;;13.70;53.20;;;;;;4955594;29;20051;-83
2022/03/25 11:16:49;;;;;;;32.88;20.25;;;13.90;52.80;;;;;;4955167;29;20142;-82
2022/03/25 11:19:17;;;;;;;31.55;19.73;;;13.80;51.50;;;;;;4955094;29;20106;-83
2022/03/25 11:21:46;;;;;;;32.30;19.80;;;14.00;51.90;;;;;;4955058;29;20146;-84
2022/03/25 11:24:22;;;;;;;29.83;18.73;;;14.10;51.70;;;;;;4955140;29;20464;-84
2022/03/25 11:26:52;;;;;;;29.08;17.92;;;14.10;51.60;;;;;;4955284;29;20462;-84
2022/03/25 11:29:27;;;;;;;31.77;19.50;;;14.30;49.90;;;;;;4955461;29;20130;-84
2022/03/25 11:32:06;;;;;;;29.13;18.48;;;14.50;49.90;;;;;;4956762;28;20058;-84
2022/03/25 11:34:33;;;;;;;30.55;19.45;;;14.60;49.80;;;;;;4958922;29;20062;-84
2022/03/25 11:37:20;;;;;;;27.65;17.88;;;14.60;49.40;;;;;;4958626;28;20061;-83
2022/03/25 11:39:49;;;;;;;26.02;16.63;;;14.80;49.90;;;;;;4958638;29;20461;-84
2022/03/25 11:42:40;;;;;;;27.25;16.63;;;14.90;49.30;;;;;;4958732;29;20138;-83
2022/03/25 11:45:35;;;;;;;28.50;17.42;;;15.10;49.30;;;;;;4958297;29;20051;-83
2022/03/25 11:48:42;;;;;;;27.02;18.48;;;15.30;47.50;;;;;;4958590;29;20501;-83
2022/03/25 11:51:33;;;;;;;24.13;16.58;;;15.40;46.30;;;;;;4958437;29;20075;-83
2022/03/25 11:54:02;;;;;;;23.83;15.40;;;15.80;45.10;;;;;;4958464;29;20057;-84
2022/03/25 11:56:50;;;;;;;21.95;14.90;;;15.80;44.40;;;;;;4958291;28;20522;-84
2022/03/25 11:59:18;;;;;;;25.80;16.90;;;15.90;43.70;;;;;;4958245;29;20134;-83
2022/03/25 12:01:46;;;;;;;23.98;17.05;;;16.10;44.80;;;;;;4958215;29;20059;-84
2022/03/25 12:04:14;;;;;;;24.42;16.25;;;16.20;43.30;;;;;;4956347;29;20075;-84
2022/03/25 12:07:02;;;;;;;22.70;15.45;;;16.40;42.20;;;;;;4950329;28;20051;-82
2022/03/25 12:09:37;;;;;;;21.75;15.20;;;16.30;41.80;;;;;;4958036;28;20052;-87
2022/03/25 12:12:08;;;;;;;18.20;13.98;;;16.40;40.90;;;;;;4953050;28;20562;-80
2022/03/25 12:14:36;;;;;;;23.27;15.07;;;16.60;41.40;;;;;;4955132;29;20122;-77
2022/03/25 12:17:08;;;;;;;22.15;15.10;;;16.70;40.40;;;;;;4953827;28;20394;-80
2022/03/25 12:19:53;;;;;;;21.33;16.10;;;16.90;40.10;;;;;;4954116;28;20474;-79
2022/03/25 12:22:37;;;;;;;23.75;15.70;;;16.80;39.30;;;;;;4952431;29;20566;-79
2022/03/25 12:25:22;;;;;;;20.75;14.43;;;17.00;39.80;;;;;;4954189;29;20401;-78
2022/03/25 12:27:54;;;;;;;20.52;14.77;;;17.20;39.90;;;;;;4944705;28;20051;-79
2022/03/25 12:30:22;;;;;;;21.17;14.05;;;17.40;39.70;;;;;;4949761;29;20043;-79
2022/03/25 12:32:51;;;;;;;17.85;12.43;;;17.50;38.30;;;;;;4952620;29;20051;-79
2022/03/25 12:35:21;;;;;;;17.05;12.32;;;17.80;42.00;;;;;;4950643;29;20051;-79
2022/03/25 12:38:04;;;;;;;19.20;12.95;;;18.00;37.60;;;;;;4952383;29;20055;-80
2022/03/25 12:40:33;;;;;;;22.42;15.15;;;18.10;39.90;;;;;;4950836;29;20052;-80
2022/03/25 12:43:05;;;;;;;21.15;15.15;;;18.10;38.70;;;;;;4934509;29;20095;-78
2022/03/25 12:45:34;;;;;;;20.15;13.68;;;18.40;40.30;;;;;;4952109;29;20046;-79
2022/03/25 12:48:10;;;;;;;20.52;14.93;;;18.60;39.20;;;;;;4951672;28;20125;-81
2022/03/25 12:50:39;;;;;;;21.73;14.57;;;18.70;38.00;;;;;;4951674;29;20496;-77
2022/03/25 12:53:06;;;;;;;21.80;14.60;;;18.90;38.80;;;;;;4950179;29;20523;-78
2022/03/25 12:55:34;;;;;;;22.88;16.13;;;19.00;37.30;;;;;;4950334;29;20150;-79
2022/03/25 12:58:08;;;;;;;20.25;14.50;;;18.80;37.10;;;;;;4951635;29;20043;-77
2022/03/25 13:00:42;;;;;;;22.08;15.38;;;19.10;36.90;;;;;;4950896;29;20047;-78
2022/03/25 13:03:11;;;;;;;19.88;13.68;;;19.20;36.20;;;;;;4948278;29;20078;-80
2022/03/25 13:05:39;;;;;;;21.35;14.73;;;19.40;40.50;;;;;;4945760;29;20076;-79
2022/03/25 13:08:08;;;;;;;21.58;14.63;;;19.50;36.50;;;;;;4950940;29;20050;-79
2022/03/25 13:10:37;;;;;;;20.65;14.70;;;19.50;36.00;;;;;;4951282;29;20051;-79
2022/03/25 13:13:08;;;;;;;19.08;13.75;;;19.30;36.70;;;;;;4950478;29;20047;-80
2022/03/25 13:15:37;;;;;;;18.10;13.35;;;19.70;37.50;;;;;;4950261;29;20580;-80
2022/03/25 13:18:06;;;;;;;19.13;14.25;;;20.10;36.20;;;;;;4950904;29;20484;-77
2022/03/25 13:20:36;;;;;;;24.05;16.27;;;20.20;38.80;;;;;;4949383;29;20059;-77
2022/03/25 13:23:06;;;;;;;22.58;16.90;;;20.40;35.90;;;;;;4952061;28;20047;-79
2022/03/25 13:25:37;;;;;;;20.48;15.75;;;20.40;35.00;;;;;;4968082;28;20043;-79
2022/03/25 13:28:11;;;;;;;21.55;15.70;;;20.80;34.40;;;;;;4960813;28;20130;-80
2022/03/25 13:30:39;;;;;;;22.98;15.30;;;20.40;34.60;;;;;;4972874;28;20057;-77
2022/03/25 13:33:08;;;;;;;18.92;14.30;;;20.60;34.40;;;;;;4956926;28;20070;-77
2022/03/25 13:35:39;;;;;;;20.60;14.93;;;21.40;35.40;;;;;;4953244;29;20130;-79
2022/03/25 13:38:11;;;;;;;20.75;14.65;;;21.80;33.70;;;;;;4953487;29;20138;-80
2022/03/25 13:40:44;;;;;;;21.33;15.60;;;21.80;32.90;;;;;;4952702;29;20082;-79
2022/03/25 13:43:16;;;;;;;25.77;17.40;;;21.50;32.80;;;;;;4934169;29;20140;-78
2022/03/25 13:45:57;;;;;;;21.50;16.80;;;21.90;32.70;;;;;;4945935;29;20051;-80
2022/03/25 13:48:24;;;;;;;22.00;15.55;;;22.20;34.10;;;;;;4951128;28;20583;-80
2022/03/25 13:50:53;;;;;;;25.08;17.85;;;22.20;34.50;;;;;;4950952;28;20556;-81
2022/03/25 13:53:39;;;;;;;22.70;17.00;;;22.90;33.50;;;;;;4955226;29;20134;-81
2022/03/25 13:56:15;;;;;;;23.73;18.02;;;22.90;32.80;;;;;;4954024;28;20127;-79
2022/03/25 13:58:52;;;;;;;24.98;18.08;;;22.50;33.50;;;;;;4946444;29;20094;-80
2022/03/25 14:01:33;;;;;;;22.63;17.42;;;23.20;33.20;;;;;;4950758;28;20047;-80
2022/03/25 14:04:10;;;;;;;23.60;17.33;;;23.30;32.80;;;;;;4947751;29;20070;-80
2022/03/25 14:06:40;;;;;;;22.30;17.30;;;23.50;31.80;;;;;;4951299;29;20047;-81
2022/03/25 14:09:25;;;;;;;26.95;18.65;;;24.20;31.90;;;;;;4950241;28;20054;-79
2022/03/25 14:11:52;;;;;;;23.35;17.02;;;24.10;31.70;;;;;;4946712;28;20129;-82
2022/03/25 14:14:30;;;;;;;23.77;16.73;;;24.30;31.30;;;;;;4950197;29;20555;-78
2022/03/25 14:16:58;;;;;;;22.80;16.95;;;25.20;30.70;;;;;;4950525;29;20129;-80
2022/03/25 14:19:26;;;;;;;22.05;17.20;;;24.90;30.20;;;;;;4950092;28;20166;-80
2022/03/25 14:21:54;;;;;;;21.45;16.55;;;26.00;30.10;;;;;;4951094;29;20079;-80
2022/03/25 14:24:34;;;;;;;22.00;16.70;;;26.60;29.80;;;;;;4948410;28;21018;-79
2022/03/25 14:27:03;;;;;;;21.20;16.55;;;26.50;30.00;;;;;;4950726;28;20101;-80
2022/03/25 14:29:32;;;;;;;20.15;15.60;;;25.60;30.00;;;;;;4949766;29;20071;-78
2022/03/25 14:31:59;;;;;;;19.30;16.00;;;26.80;29.60;;;;;;4948211;28;20043;-81
2022/03/25 14:34:26;;;;;;;18.23;15.57;;;27.90;29.20;;;;;;4951089;29;20057;-79
2022/03/25 14:36:53;;;;;;;17.75;15.27;;;27.90;28.80;;;;;;4950980;28;20049;-80
2022/03/25 14:39:22;;;;;;;19.15;15.27;;;28.00;29.00;;;;;;4949742;28;20047;-80
2022/03/25 14:41:50;;;;;;;18.70;15.48;;;28.10;28.30;;;;;;4950781;29;20044;-80
2022/03/25 14:44:18;;;;;;;17.55;14.73;;;26.60;28.50;;;;;;4949732;28;20055;-79
2022/03/25 14:46:47;;;;;;;17.55;15.15;;;27.60;28.50;;;;;;4950092;29;20055;-80
2022/03/25 14:49:15;;;;;;;18.17;15.48;;;28.10;27.90;;;;;;4949911;28;20047;-79
2022/03/25 14:51:43;;;;;;;17.45;14.13;;;27.60;27.90;;;;;;4949455;29;20461;-78
2022/03/25 14:54:12;;;;;;;16.95;14.07;;;27.90;28.30;;;;;;4948867;29;20158;-80
2022/03/25 14:56:41;;;;;;;16.80;14.32;;;28.50;27.70;;;;;;4944430;28;20058;-80
2022/03/25 14:59:08;;;;;;;15.55;13.85;;;29.20;27.80;;;;;;4948874;29;20051;-79
2022/03/25 15:01:36;;;;;;;15.48;13.75;;;28.40;27.60;;;;;;4950693;29;20093;-75
2022/03/25 15:04:04;;;;;;;17.10;14.57;;;28.20;28.50;;;;;;4948388;28;20054;-76
2022/03/25 15:06:32;;;;;;;16.10;14.40;;;28.20;28.00;;;;;;4949022;28;20110;-75
2022/03/25 15:08:59;;;;;;;15.95;14.25;;;28.30;27.90;;;;;;4952461;28;20051;-76
2022/03/25 15:11:26;;;;;;;16.27;14.55;;;28.40;28.40;;;;;;4952995;29;20044;-85
2022/03/25 15:13:53;;;;;;;16.08;14.32;;;27.40;28.10;;;;;;4944226;29;20107;-87
2022/03/25 15:16:20;;;;;;;16.02;14.18;;;27.70;28.40;;;;;;4957103;28;20548;-82
2022/03/25 15:18:48;;;;;;;16.67;14.75;;;27.90;27.90;;;;;;4954224;29;20066;-80
2022/03/25 15:21:16;;;;;;;18.27;14.60;;;28.30;28.30;;;;;;4955349;28;20057;-84
2022/03/25 15:23:43;;;;;;;18.15;16.15;;;28.40;27.60;;;;;;4958572;29;20126;-83
2022/03/25 15:26:10;;;;;;;17.60;15.70;;;28.00;28.30;;;;;;4958267;29;20134;-83
2022/03/25 15:28:37;;;;;;;15.93;14.25;;;28.60;28.10;;;;;;4958489;29;20082;-83
2022/03/25 15:36:36;;;;;;;16.70;13.30;;;28.30;27.60;;;;;;4958563;29;20073;-82
2022/03/25 15:39:05;;;;;;;14.43;12.90;;;28.30;27.10;;;;;;4966139;29;20142;-83
2022/03/25 15:41:33;;;;;;;14.05;12.55;;;28.40;26.70;;;;;;4964933;29;20070;-81
2022/03/25 15:44:00;;;;;;;14.95;13.18;;;28.10;27.10;;;;;;4941492;29;20130;-82
2022/03/25 15:46:28;;;;;;;15.32;13.30;;;28.60;26.90;;;;;;4941792;29;20053;-82
2022/03/25 15:48:55;;;;;;;14.52;13.02;;;28.80;26.60;;;;;;4959180;29;20067;-82
2022/03/25 15:51:22;;;;;;;15.20;13.38;;;28.80;26.70;;;;;;4959282;29;20106;-81
2022/03/25 15:53:51;;;;;;;14.75;13.15;;;28.90;26.50;;;;;;4959254;29;20122;-82
2022/03/25 15:56:18;;;;;;;14.65;13.00;;;28.70;26.80;;;;;;4958747;29;20559;-81
2022/03/25 15:58:45;;;;;;;15.52;13.45;;;28.30;26.60;;;;;;4941646;29;20146;-83
2022/03/25 16:01:12;;;;;;;16.83;14.20;;;27.90;27.40;;;;;;4958410;29;20126;-81
2022/03/25 16:03:40;;;;;;;15.73;14.02;;;28.20;27.20;;;;;;4958696;29;20051;-81
2022/03/25 16:06:08;;;;;;;15.82;13.88;;;28.40;27.30;;;;;;4958016;29;20499;-81
2022/03/25 16:08:36;;;;;;;16.15;14.43;;;28.50;27.00;;;;;;4957774;29;20078;-83
2022/03/25 16:11:04;;;;;;;16.35;14.13;;;28.00;27.20;;;;;;4957881;29;20071;-82
2022/03/25 16:13:32;;;;;;;15.90;14.20;;;27.90;27.50;;;;;;4957561;29;20043;-82
2022/03/25 16:16:03;;;;;;;16.13;14.52;;;27.30;27.40;;;;;;4957792;29;20051;-82
2022/03/25 16:18:31;;;;;;;15.63;14.00;;;27.40;27.70;;;;;;4956893;28;20051;-82
2022/03/25 16:21:00;;;;;;;16.15;14.00;;;27.50;27.70;;;;;;4957277;29;20086;-80
2022/03/25 16:23:27;;;;;;;16.38;14.63;;;27.60;27.50;;;;;;4957422;29;20101;-82
2022/03/25 16:25:54;;;;;;;16.95;14.80;;;27.30;27.50;;;;;;4957375;29;20130;-82
2022/03/25 16:28:23;;;;;;;20.30;15.30;;;26.20;27.90;;;;;;4940229;29;20472;-82
2022/03/25 16:30:50;;;;;;;20.75;17.63;;;26.30;28.30;;;;;;4957505;29;20444;-81
2022/03/25 16:33:18;;;;;;;20.58;16.35;;;25.60;28.20;;;;;;4957277;28;20156;-82
2022/03/25 16:35:46;;;;;;;19.02;15.48;;;25.60;28.80;;;;;;4957481;29;20051;-82
2022/03/25 16:38:13;;;;;;;17.42;14.98;;;25.90;28.70;;;;;;4957220;29;20081;-83
2022/03/25 16:40:41;;;;;;;18.48;15.52;;;26.00;28.60;;;;;;4957043;29;20377;-80
2022/03/25 16:43:08;;;;;;;18.50;15.43;;;25.90;28.40;;;;;;4923996;29;20054;-82
2022/03/25 16:45:37;;;;;;;18.55;15.35;;;25.60;29.10;;;;;;4957080;29;20126;-81
2022/03/25 16:48:06;;;;;;;18.40;15.80;;;25.60;28.70;;;;;;4956894;29;20051;-82
2022/03/25 16:50:33;;;;;;;18.83;15.77;;;25.40;28.80;;;;;;4957074;29;20061;-82
2022/03/25 16:53:00;;;;;;;19.67;16.50;;;25.10;28.60;;;;;;4956886;29;20559;-83
2022/03/25 16:55:28;;;;;;;19.63;16.17;;;24.00;29.50;;;;;;4939806;29;20047;-82
2022/03/25 16:57:55;;;;;;;18.35;15.23;;;23.80;30.10;;;;;;4940027;29;20493;-81
2022/03/25 17:00:22;;;;;;;19.52;15.65;;;23.30;29.90;;;;;;4956899;29;20130;-82
2022/03/25 17:02:51;;;;;;;21.13;15.70;;;22.80;30.20;;;;;;4956878;29;20114;-81
2022/03/25 17:05:18;;;;;;;20.02;15.63;;;22.50;30.40;;;;;;4947474;29;20130;-81
2022/03/25 17:07:45;;;;;;;18.83;15.00;;;21.90;31.10;;;;;;4920915;29;20492;-81
2022/03/25 17:10:15;;;;;;;19.00;15.88;;;21.90;32.10;;;;;;4937474;29;20058;-83
2022/03/25 17:12:42;;;;;;;20.35;16.23;;;21.60;31.70;;;;;;4920523;29;20048;-81
2022/03/25 17:15:10;;;;;;;19.73;15.15;;;21.50;31.90;;;;;;4937588;29;20130;-82
2022/03/25 17:17:37;;;;;;;20.02;15.35;;;21.40;32.20;;;;;;4937225;29;20110;-82
2022/03/25 17:20:08;;;;;;;23.10;16.67;;;21.00;32.80;;;;;;4920489;29;20545;-83
2022/03/25 17:22:35;;;;;;;21.20;16.17;;;20.90;32.90;;;;;;4941863;29;20126;-84
2022/03/25 17:25:03;;;;;;;21.67;16.27;;;20.70;33.30;;;;;;4942601;29;20116;-83
2022/03/25 17:27:30;;;;;;;24.80;17.15;;;20.50;33.40;;;;;;4938285;29;20508;-83
2022/03/25 17:29:57;;;;;;;23.73;17.00;;;20.10;33.80;;;;;;4936773;29;20059;-81
2022/03/25 17:32:25;;;;;;;21.98;16.40;;;19.80;34.40;;;;;;4937578;29;20083;-82
2022/03/25 17:34:52;;;;;;;22.08;16.98;;;19.50;34.60;;;;;;4936948;29;20094;-82
2022/03/25 17:37:20;;;;;;;23.60;16.52;;;19.40;35.00;;;;;;4937169;29;20131;-83
2022/03/25 17:39:48;;;;;;;21.65;16.25;;;19.00;34.80;;;;;;4937875;29;20098;-83
2022/03/25 17:42:15;;;;;;;20.55;15.48;;;19.00;35.30;;;;;;4937702;29;20051;-81
2022/03/25 17:44:42;;;;;;;22.58;16.55;;;18.80;35.40;;;;;;4937656;29;20459;-82
2022/03/25 17:47:10;;;;;;;22.45;16.30;;;18.60;35.90;;;;;;4937855;29;20457;-84
2022/03/25 17:49:37;;;;;;;23.55;15.43;;;18.30;36.40;;;;;;4939534;29;20134;-83
2022/03/25 17:52:05;;;;;;;20.45;15.13;;;18.40;36.90;;;;;;4938921;29;20095;-82
2022/03/25 17:54:34;;;;;;;24.02;16.25;;;18.10;37.00;;;;;;4921850;29;20058;-82
2022/03/25 17:57:01;;;;;;;22.00;15.43;;;17.90;37.10;;;;;;4938048;29;20098;-84
2022/03/25 17:59:28;;;;;;;21.63;15.73;;;17.80;37.70;;;;;;4920369;29;20058;-83
2022/03/25 18:01:56;;;;;;;22.80;15.77;;;17.50;38.10;;;;;;4921348;29;20134;-82
2022/03/25 18:04:23;;;;;;;21.98;15.45;;;17.50;37.50;;;;;;4920855;29;20078;-83
2022/03/25 18:06:50;;;;;;;22.30;15.40;;;17.40;38.00;;;;;;4942010;29;20107;-83
2022/03/25 18:09:18;;;;;;;24.40;16.02;;;17.30;38.50;;;;;;4922542;29;20059;-84
2022/03/25 18:11:47;;;;;;;22.52;14.43;;;17.10;38.80;;;;;;4922775;29;20462;-83